South Collingham, United Kingdom
Current Conditions -  °F | °C
As of 8:24 AM on Friday 31 Oct 2014 (Local Time) from EGXW Reporting Station
Moderate Fog Moderate Fog  
Wind Chill: 55°   Ceiling: Unl
Heat Index: 55°   Visibility: 0.25mi
Dew Point: 55°   Wind: 7mph
Humidity: 100%   Direction: 150°SSE
Pressure: 29.97"   Gusts: NA
Location:  53.13°N, 0.77°W
Report Text: EGXW 310824Z 15006KT 0400 FG OVC000 13/13 Q1015 RED BECMG 2000 BR BKN003 YLO2
Loading
Personal Weather Stations






























Interactive Weather Map New forecast layout! Learn more

10-Day Weather Forecast

Advertisements
Track Severe Weather on mobile